Time;durP1;ratioP1;P1;durP2;ratioP2;P2;SDS_P1;SDS_P2;PMS_P1;PMS_P2;Temp;Humidity;BMP_temperature;BMP_pressure;BME280_temperature;BME280_humidity;BME280_pressure;Samples;Min_cycle;Max_cycle;Signal;HPM_P1;HPM_P2
2021/10/04 00:01:39;;;;;;;3.78;1.80;;;;;;;;;;4933024;29;20055;-84
2021/10/04 00:04:08;;;;;;;1.40;1.35;;;;;;;;;;4942467;29;20058;-84
2021/10/04 00:06:36;;;;;;;2.70;1.73;;;;;;;;;;4951859;28;20047;-84
2021/10/04 00:09:04;;;;;;;3.17;1.63;;;;;;;;;;4935171;29;20055;-84
2021/10/04 00:11:32;;;;;;;2.65;2.42;;;;;;;;;;4957946;28;20055;-84
2021/10/04 00:14:00;;;;;;;2.08;1.88;;;;;;;;;;4971619;28;20357;-85
2021/10/04 00:16:28;;;;;;;3.08;2.30;;;;;;;;;;4971964;28;20058;-84
2021/10/04 00:18:56;;;;;;;2.10;1.90;;;;;;;;;;4971107;28;20065;-84
2021/10/04 00:21:24;;;;;;;2.63;2.17;;;;;;;;;;4970877;28;20066;-84
2021/10/04 00:23:52;;;;;;;3.28;2.38;;;;;;;;;;4971822;28;20077;-84
2021/10/04 00:26:20;;;;;;;2.72;1.80;;;;;;;;;;4970620;28;20073;-83
2021/10/04 00:28:48;;;;;;;2.63;2.17;;;;;;;;;;4971250;28;20053;-83
2021/10/04 00:31:16;;;;;;;4.40;1.85;;;;;;;;;;4938883;28;20042;-84
2021/10/04 00:33:44;;;;;;;2.40;2.20;;;;;;;;;;4965045;28;20055;-83
2021/10/04 00:36:13;;;;;;;2.65;2.22;;;;;;;;;;4952069;29;20051;-84
2021/10/04 00:38:41;;;;;;;2.83;2.00;;;;;;;;;;4951481;29;20051;-84
2021/10/04 00:41:09;;;;;;;1.98;1.77;;;;;;;;;;4933009;29;20047;-84
2021/10/04 00:43:37;;;;;;;2.63;1.98;;;;;;;;;;4919207;29;20058;-84
2021/10/04 00:46:06;;;;;;;5.75;2.20;;;;;;;;;;4955286;28;20417;-84
2021/10/04 00:48:34;;;;;;;2.30;2.10;;;;;;;;;;4937501;29;20062;-83
2021/10/04 00:51:02;;;;;;;5.43;3.33;;;;;;;;;;4954968;29;20058;-83
2021/10/04 00:53:30;;;;;;;7.78;2.28;;;;;;;;;;4954951;29;20047;-84
2021/10/04 00:55:58;;;;;;;2.72;2.47;;;;;;;;;;4954999;29;20523;-84
2021/10/04 00:58:26;;;;;;;1.88;1.70;;;;;;;;;;4955176;29;20050;-83
2021/10/04 01:00:54;;;;;;;2.70;2.40;;;;;;;;;;4954960;28;20043;-83
2021/10/04 01:03:23;;;;;;;2.88;2.45;;;;;;;;;;4955177;28;20051;-84
2021/10/04 01:05:51;;;;;;;3.42;1.73;;;;;;;;;;4956677;28;20047;-84
2021/10/04 01:08:19;;;;;;;3.28;1.90;;;;;;;;;;4969630;28;20057;-84
2021/10/04 01:10:47;;;;;;;1.75;1.65;;;;;;;;;;4933189;29;20059;-83
2021/10/04 01:13:16;;;;;;;2.42;1.92;;;;;;;;;;4916832;29;20048;-83
2021/10/04 01:15:44;;;;;;;2.20;1.95;;;;;;;;;;4917428;29;20075;-83
2021/10/04 01:18:12;;;;;;;2.25;1.40;;;;;;;;;;4916700;29;20048;-83
2021/10/04 01:20:40;;;;;;;3.05;1.90;;;;;;;;;;4914643;29;20048;-83
2021/10/04 01:23:09;;;;;;;2.60;2.33;;;;;;;;;;4931569;29;20059;-83
2021/10/04 01:25:37;;;;;;;2.60;1.75;;;;;;;;;;4914700;29;20048;-83
2021/10/04 01:28:05;;;;;;;1.88;1.40;;;;;;;;;;4917136;29;20052;-83
2021/10/04 01:30:36;;;;;;;3.53;2.70;;;;;;;;;;4916491;29;20047;-83
2021/10/04 01:33:04;;;;;;;3.25;2.03;;;;;;;;;;4917266;29;20056;-83
2021/10/04 01:35:33;;;;;;;2.33;1.40;;;;;;;;;;4935928;29;20056;-83
2021/10/04 01:38:01;;;;;;;3.67;3.25;;;;;;;;;;4934264;29;20054;-83
2021/10/04 01:40:29;;;;;;;3.53;2.15;;;;;;;;;;4934277;29;20051;-83
2021/10/04 01:42:57;;;;;;;2.45;1.95;;;;;;;;;;4935156;28;20055;-83
2021/10/04 01:45:26;;;;;;;2.08;1.85;;;;;;;;;;4933277;29;20044;-84
2021/10/04 01:47:59;;;;;;;2.10;1.90;;;;;;;;;;4933660;29;20062;-84
2021/10/04 01:50:29;;;;;;;2.30;2.08;;;;;;;;;;4934327;29;20048;-83
2021/10/04 01:52:57;;;;;;;5.95;2.83;;;;;;;;;;4934386;29;20043;-83
2021/10/04 01:55:25;;;;;;;2.33;2.13;;;;;;;;;;4934265;29;20044;-82
2021/10/04 01:57:53;;;;;;;2.50;2.30;;;;;;;;;;4934136;28;20051;-83
2021/10/04 02:00:22;;;;;;;2.55;2.33;;;;;;;;;;4935354;29;20047;-83
2021/10/04 02:02:51;;;;;;;2.70;2.20;;;;;;;;;;4935226;29;20044;-83
2021/10/04 02:05:20;;;;;;;2.67;2.10;;;;;;;;;;4933268;28;20504;-83
2021/10/04 02:07:50;;;;;;;2.42;2.00;;;;;;;;;;4934303;29;20047;-83
2021/10/04 02:10:20;;;;;;;2.97;2.72;;;;;;;;;;4933314;29;20044;-83
2021/10/04 02:12:48;;;;;;;3.17;2.20;;;;;;;;;;4932863;28;20056;-83
2021/10/04 02:15:16;;;;;;;3.03;2.72;;;;;;;;;;4935090;29;20062;-83
2021/10/04 02:17:44;;;;;;;3.92;2.53;;;;;;;;;;4934496;28;20331;-83
2021/10/04 02:20:14;;;;;;;2.60;2.20;;;;;;;;;;4934681;29;20775;-83
2021/10/04 02:22:43;;;;;;;1.75;1.65;;;;;;;;;;4934281;28;20047;-83
2021/10/04 02:25:12;;;;;;;2.25;2.05;;;;;;;;;;4933148;29;20405;-83
2021/10/04 02:27:41;;;;;;;2.88;2.30;;;;;;;;;;4934390;29;20051;-83
2021/10/04 02:30:11;;;;;;;3.30;2.95;;;;;;;;;;4933084;28;20406;-83
2021/10/04 02:32:39;;;;;;;5.15;2.72;;;;;;;;;;4934081;28;20059;-83
2021/10/04 02:35:08;;;;;;;2.30;2.17;;;;;;;;;;4933043;29;20048;-83
2021/10/04 02:37:36;;;;;;;2.25;1.52;;;;;;;;;;4933754;28;20052;-83
2021/10/04 02:40:05;;;;;;;3.03;2.22;;;;;;;;;;4934695;29;20051;-83
2021/10/04 02:42:33;;;;;;;3.22;1.65;;;;;;;;;;4931766;29;20043;-83
2021/10/04 02:45:02;;;;;;;3.47;2.80;;;;;;;;;;4934241;28;20050;-83
2021/10/04 02:47:30;;;;;;;2.42;2.10;;;;;;;;;;4934519;29;20060;-83
2021/10/04 02:49:58;;;;;;;1.70;1.60;;;;;;;;;;4932063;29;20039;-83
2021/10/04 02:52:26;;;;;;;2.58;2.35;;;;;;;;;;4934280;29;20062;-83
2021/10/04 02:54:54;;;;;;;2.15;1.88;;;;;;;;;;4934008;29;20051;-83
2021/10/04 02:57:22;;;;;;;1.75;1.65;;;;;;;;;;4933343;29;20047;-83
2021/10/04 02:59:55;;;;;;;2.55;2.00;;;;;;;;;;4934061;29;20414;-83
2021/10/04 03:02:23;;;;;;;2.13;1.80;;;;;;;;;;4933942;28;20051;-83
2021/10/04 03:04:52;;;;;;;2.60;2.40;;;;;;;;;;4933520;29;20125;-83
2021/10/04 03:07:20;;;;;;;2.35;2.13;;;;;;;;;;4932624;29;20048;-83
2021/10/04 03:09:48;;;;;;;2.60;1.90;;;;;;;;;;4919117;29;20047;-83
2021/10/04 03:12:16;;;;;;;2.67;2.33;;;;;;;;;;4914657;29;20091;-83
2021/10/04 03:14:44;;;;;;;2.03;1.63;;;;;;;;;;4914788;29;20800;-83
2021/10/04 03:17:12;;;;;;;3.55;2.40;;;;;;;;;;4914531;29;20052;-83
2021/10/04 03:19:40;;;;;;;3.00;2.35;;;;;;;;;;4914969;29;20052;-83
2021/10/04 03:22:08;;;;;;;3.67;2.38;;;;;;;;;;4912760;29;20055;-83
2021/10/04 03:24:36;;;;;;;2.13;1.63;;;;;;;;;;4914563;29;20048;-83
2021/10/04 03:27:04;;;;;;;2.20;1.73;;;;;;;;;;4914503;29;20048;-83
2021/10/04 03:29:32;;;;;;;2.22;1.98;;;;;;;;;;4896873;29;20055;-83
2021/10/04 03:32:00;;;;;;;3.10;2.83;;;;;;;;;;4914534;29;20490;-83
2021/10/04 03:34:28;;;;;;;2.65;2.20;;;;;;;;;;4926052;29;20043;-83
2021/10/04 03:36:56;;;;;;;2.25;1.63;;;;;;;;;;4933080;29;20048;-83
2021/10/04 03:39:24;;;;;;;2.25;2.05;;;;;;;;;;4933795;29;20052;-83
2021/10/04 03:41:52;;;;;;;3.13;2.28;;;;;;;;;;4932374;28;20048;-83
2021/10/04 03:44:20;;;;;;;4.85;2.00;;;;;;;;;;4933611;29;20393;-83
2021/10/04 03:46:48;;;;;;;1.95;1.80;;;;;;;;;;4933212;29;20052;-83
2021/10/04 03:49:17;;;;;;;3.67;2.95;;;;;;;;;;4933233;28;20133;-83
2021/10/04 03:51:45;;;;;;;3.22;1.77;;;;;;;;;;4933320;29;20074;-83
2021/10/04 03:54:12;;;;;;;7.18;2.75;;;;;;;;;;4931746;29;20399;-83
2021/10/04 03:56:40;;;;;;;3.25;1.60;;;;;;;;;;4930619;28;20060;-83
2021/10/04 03:59:09;;;;;;;4.10;2.65;;;;;;;;;;4916522;29;20058;-83
2021/10/04 04:01:37;;;;;;;2.03;1.90;;;;;;;;;;4932579;29;20052;-83
2021/10/04 04:04:05;;;;;;;2.17;1.67;;;;;;;;;;4932101;29;20059;-83
2021/10/04 04:06:33;;;;;;;1.50;1.30;;;;;;;;;;4932918;29;20512;-83
2021/10/04 04:09:01;;;;;;;2.88;2.65;;;;;;;;;;4933064;29;20071;-83
2021/10/04 04:11:29;;;;;;;2.53;2.33;;;;;;;;;;4939091;29;20051;-83
2021/10/04 04:13:57;;;;;;;2.35;2.20;;;;;;;;;;4952251;29;20420;-83
2021/10/04 04:16:25;;;;;;;3.45;1.70;;;;;;;;;;4935036;29;20058;-83
2021/10/04 04:18:53;;;;;;;4.25;2.78;;;;;;;;;;4952308;28;20043;-83
2021/10/04 04:21:21;;;;;;;4.10;2.60;;;;;;;;;;4955444;28;20400;-83
2021/10/04 04:24:10;;;;;;;1.98;1.75;;;;;;;;;;4956045;29;20073;-83
2021/10/04 04:26:38;;;;;;;4.28;3.08;;;;;;;;;;4954737;29;20059;-83
2021/10/04 04:29:06;;;;;;;2.67;1.67;;;;;;;;;;4955793;28;20051;-83
2021/10/04 04:31:34;;;;;;;1.17;1.17;;;;;;;;;;4955742;29;20055;-83
2021/10/04 04:34:02;;;;;;;2.60;2.10;;;;;;;;;;4946913;29;20051;-82
2021/10/04 04:36:30;;;;;;;1.52;1.40;;;;;;;;;;4922712;29;20513;-83
2021/10/04 04:38:58;;;;;;;2.10;1.90;;;;;;;;;;4917183;29;20059;-83
2021/10/04 04:41:26;;;;;;;4.43;2.20;;;;;;;;;;4899423;29;20411;-83
2021/10/04 04:43:54;;;;;;;1.63;1.52;;;;;;;;;;4917663;29;20056;-83
2021/10/04 04:46:22;;;;;;;2.05;1.95;;;;;;;;;;4932827;29;20048;-83
2021/10/04 04:48:50;;;;;;;2.67;2.33;;;;;;;;;;4882965;29;20101;-82
2021/10/04 04:51:18;;;;;;;2.63;1.80;;;;;;;;;;4931574;29;20059;-80
2021/10/04 04:53:46;;;;;;;2.95;2.08;;;;;;;;;;4918203;29;20043;-80
2021/10/04 04:56:18;;;;;;;1.88;1.52;;;;;;;;;;4916285;29;20044;-81
2021/10/04 04:58:46;;;;;;;3.05;2.10;;;;;;;;;;4935764;29;20052;-81
2021/10/04 05:01:14;;;;;;;1.85;1.50;;;;;;;;;;4918511;29;20048;-81
2021/10/04 05:03:43;;;;;;;1.70;1.60;;;;;;;;;;4940597;29;20039;-80
2021/10/04 05:06:12;;;;;;;2.55;2.00;;;;;;;;;;4954890;29;20047;-82
2021/10/04 05:08:40;;;;;;;2.97;2.10;;;;;;;;;;4949386;29;20047;-81
2021/10/04 05:11:08;;;;;;;1.75;1.65;;;;;;;;;;4935305;28;20516;-82
2021/10/04 05:13:36;;;;;;;1.27;1.20;;;;;;;;;;4935742;29;20046;-81
2021/10/04 05:16:04;;;;;;;1.85;1.75;;;;;;;;;;4936231;29;20067;-81
2021/10/04 05:18:32;;;;;;;3.20;1.60;;;;;;;;;;4935223;28;20054;-81
2021/10/04 05:21:00;;;;;;;2.30;1.98;;;;;;;;;;4935460;29;20047;-82
2021/10/04 05:23:30;;;;;;;4.82;1.98;;;;;;;;;;4935936;29;20056;-84
2021/10/04 05:25:58;;;;;;;2.38;2.03;;;;;;;;;;4917373;29;20133;-83
2021/10/04 05:28:26;;;;;;;4.15;2.28;;;;;;;;;;4935636;29;20047;-82
2021/10/04 05:30:54;;;;;;;3.75;1.88;;;;;;;;;;4934990;29;20040;-85
2021/10/04 05:33:22;;;;;;;1.85;1.50;;;;;;;;;;4932163;29;20478;-82
2021/10/04 05:35:50;;;;;;;1.80;1.50;;;;;;;;;;4925223;29;20047;-82
2021/10/04 05:38:18;;;;;;;2.47;2.08;;;;;;;;;;4934897;29;20044;-84
2021/10/04 05:40:47;;;;;;;3.50;2.78;;;;;;;;;;4933970;28;20048;-84
2021/10/04 05:43:15;;;;;;;3.17;1.75;;;;;;;;;;4934514;29;20039;-84
2021/10/04 05:45:43;;;;;;;2.00;1.80;;;;;;;;;;4935148;28;20429;-84
2021/10/04 05:48:11;;;;;;;1.67;1.50;;;;;;;;;;4935407;29;20044;-84
2021/10/04 05:50:39;;;;;;;2.55;1.80;;;;;;;;;;4934597;28;20050;-82
2021/10/04 05:53:07;;;;;;;2.28;1.85;;;;;;;;;;4933940;29;20051;-83
2021/10/04 05:55:35;;;;;;;4.57;2.58;;;;;;;;;;4934954;29;20044;-83
2021/10/04 05:58:03;;;;;;;2.38;2.17;;;;;;;;;;4932721;28;20059;-82
2021/10/04 06:00:31;;;;;;;2.72;1.70;;;;;;;;;;4935428;29;20051;-83
2021/10/04 06:02:59;;;;;;;3.67;2.45;;;;;;;;;;4934576;29;20718;-82
2021/10/04 06:05:27;;;;;;;3.58;3.28;;;;;;;;;;4933516;28;20059;-83
2021/10/04 06:08:02;;;;;;;2.28;2.00;;;;;;;;;;4923916;29;20537;-83
2021/10/04 06:10:40;;;;;;;2.38;2.08;;;;;;;;;;4932102;29;20454;-83
2021/10/04 06:13:13;;;;;;;3.38;2.30;;;;;;;;;;4935357;29;20040;-81
2021/10/04 06:15:45;;;;;;;3.45;1.70;;;;;;;;;;4928043;29;20043;-81
2021/10/04 06:18:13;;;;;;;2.20;1.90;;;;;;;;;;4919919;29;20056;-82
2021/10/04 06:20:42;;;;;;;2.85;2.42;;;;;;;;;;4906422;29;20063;-84
2021/10/04 06:23:12;;;;;;;4.78;1.98;;;;;;;;;;4930566;29;20051;-85
2021/10/04 06:25:42;;;;;;;2.55;1.90;;;;;;;;;;4915713;29;20051;-84
2021/10/04 06:28:10;;;;;;;2.60;2.40;;;;;;;;;;4934020;29;20054;-86
2021/10/04 06:30:38;;;;;;;2.95;1.88;;;;;;;;;;4932785;29;20050;-84
2021/10/04 06:33:07;;;;;;;2.25;1.80;;;;;;;;;;4922873;29;20055;-84
2021/10/04 06:35:35;;;;;;;2.42;2.20;;;;;;;;;;4914906;29;20044;-84
2021/10/04 06:38:04;;;;;;;2.63;1.83;;;;;;;;;;4933191;29;20063;-84
2021/10/04 06:40:36;;;;;;;2.50;2.30;;;;;;;;;;4915529;29;20052;-84
2021/10/04 06:43:04;;;;;;;2.40;2.28;;;;;;;;;;4933115;29;20044;-87
2021/10/04 06:45:32;;;;;;;2.35;1.45;;;;;;;;;;4933099;29;20044;-84
2021/10/04 06:48:00;;;;;;;2.53;1.85;;;;;;;;;;4933636;29;20386;-85
2021/10/04 06:50:30;;;;;;;2.13;1.93;;;;;;;;;;4935377;29;20417;-88
2021/10/04 06:52:58;;;;;;;3.97;1.70;;;;;;;;;;4933031;29;20047;-85
2021/10/04 06:55:26;;;;;;;2.80;2.45;;;;;;;;;;4916983;29;20063;-85
2021/10/04 06:57:54;;;;;;;2.50;2.30;;;;;;;;;;4907319;29;20059;-85
2021/10/04 07:00:23;;;;;;;12.70;2.70;;;;;;;;;;4933789;29;20051;-85
2021/10/04 07:02:55;;;;;;;2.53;1.73;;;;;;;;;;4950522;28;20055;-86
2021/10/04 07:05:23;;;;;;;2.35;1.95;;;;;;;;;;4934059;29;20043;-85
2021/10/04 07:07:55;;;;;;;5.97;2.53;;;;;;;;;;4933348;29;20050;-85
2021/10/04 07:10:24;;;;;;;5.05;2.00;;;;;;;;;;4913518;29;20044;-85
2021/10/04 07:12:52;;;;;;;2.83;2.25;;;;;;;;;;4914313;29;20044;-85
2021/10/04 07:15:20;;;;;;;3.30;2.30;;;;;;;;;;4922691;29;20381;-87
2021/10/04 07:17:49;;;;;;;3.00;2.45;;;;;;;;;;4932680;28;20493;-85
2021/10/04 07:20:17;;;;;;;11.95;3.00;;;;;;;;;;4932281;29;20047;-85
2021/10/04 07:22:45;;;;;;;3.58;2.05;;;;;;;;;;4931726;29;20047;-84
2021/10/04 07:25:41;;;;;;;30.23;5.10;;;;;;;;;;4915399;29;20062;-87
2021/10/04 07:28:09;;;;;;;3.30;2.85;;;;;;;;;;4928134;29;20064;-85
2021/10/04 07:30:38;;;;;;;2.03;1.70;;;;;;;;;;4923468;29;20052;-86
2021/10/04 07:33:06;;;;;;;2.35;2.00;;;;;;;;;;4932790;29;20067;-85
2021/10/04 07:35:34;;;;;;;2.65;1.95;;;;;;;;;;4932815;29;20071;-87
2021/10/04 07:38:06;;;;;;;2.63;2.25;;;;;;;;;;4932376;29;20052;-87
2021/10/04 07:40:41;;;;;;;3.80;2.75;;;;;;;;;;4933034;28;20389;-85
2021/10/04 07:43:09;;;;;;;2.60;2.33;;;;;;;;;;4931906;29;20071;-86
2021/10/04 07:45:37;;;;;;;3.40;3.20;;;;;;;;;;4924391;29;20048;-84
2021/10/04 07:48:05;;;;;;;2.50;2.28;;;;;;;;;;4921130;29;20482;-85
2021/10/04 07:50:34;;;;;;;2.25;1.90;;;;;;;;;;4929096;28;20046;-87
2021/10/04 07:53:05;;;;;;;4.68;2.33;;;;;;;;;;4916485;29;20044;-85
2021/10/04 07:55:33;;;;;;;2.55;2.28;;;;;;;;;;4934019;29;20334;-84
2021/10/04 07:58:01;;;;;;;5.95;3.72;;;;;;;;;;4934882;28;20047;-85
2021/10/04 08:00:29;;;;;;;4.45;2.63;;;;;;;;;;4934605;29;20048;-84
2021/10/04 08:02:57;;;;;;;3.65;2.20;;;;;;;;;;4933859;29;20047;-84
2021/10/04 08:05:25;;;;;;;2.65;2.40;;;;;;;;;;4935571;28;20078;-83
2021/10/04 08:07:53;;;;;;;1.77;1.67;;;;;;;;;;4902695;29;20051;-84
2021/10/04 08:10:21;;;;;;;2.63;2.33;;;;;;;;;;4917966;29;20044;-83
2021/10/04 08:12:52;;;;;;;4.88;2.72;;;;;;;;;;4934054;28;20484;-83
2021/10/04 08:15:20;;;;;;;4.20;2.13;;;;;;;;;;4954066;29;20062;-85
2021/10/04 08:17:48;;;;;;;2.92;2.72;;;;;;;;;;4954438;28;20047;-84
2021/10/04 08:20:17;;;;;;;3.70;2.90;;;;;;;;;;4952673;29;20055;-85
2021/10/04 08:22:45;;;;;;;2.67;2.50;;;;;;;;;;4921162;29;20785;-85
2021/10/04 08:25:13;;;;;;;4.05;2.30;;;;;;;;;;4952945;29;20058;-83
2021/10/04 08:27:41;;;;;;;14.32;3.75;;;;;;;;;;4952945;29;20054;-81
2021/10/04 08:30:11;;;;;;;3.35;2.33;;;;;;;;;;4934649;29;20083;-84
2021/10/04 08:32:39;;;;;;;4.32;2.13;;;;;;;;;;4898313;29;20059;-83
2021/10/04 08:35:08;;;;;;;2.63;2.20;;;;;;;;;;4915294;29;20048;-83
2021/10/04 08:37:36;;;;;;;4.50;2.88;;;;;;;;;;4914627;29;20059;-84
2021/10/04 08:40:05;;;;;;;3.38;3.08;;;;;;;;;;4898959;29;20056;-83
2021/10/04 08:42:34;;;;;;;4.82;3.35;;;;;;;;;;4898532;29;20048;-86
2021/10/04 08:45:02;;;;;;;2.67;2.45;;;;;;;;;;4898811;29;20063;-85
2021/10/04 08:47:30;;;;;;;4.43;3.08;;;;;;;;;;4915241;29;20067;-84
2021/10/04 08:49:58;;;;;;;2.50;2.30;;;;;;;;;;4914607;29;20406;-83
2021/10/04 08:52:26;;;;;;;2.90;2.70;;;;;;;;;;4916024;29;20067;-86
2021/10/04 08:54:55;;;;;;;3.35;3.00;;;;;;;;;;4902904;29;20048;-85
2021/10/04 08:57:22;;;;;;;3.22;2.92;;;;;;;;;;4916443;29;20082;-82
2021/10/04 08:59:50;;;;;;;4.07;3.05;;;;;;;;;;4933777;29;20077;-85
2021/10/04 09:02:20;;;;;;;4.15;3.80;;;;;;;;;;4942808;28;20528;-86
2021/10/04 09:05:07;;;;;;;7.33;4.43;;;;;;;;;;4932778;28;20062;-84
2021/10/04 09:07:41;;;;;;;3.97;3.58;;;;;;;;;;4918243;29;20306;-85
2021/10/04 09:10:10;;;;;;;4.45;4.05;;;;;;;;;;4932685;29;20059;-82
2021/10/04 09:12:44;;;;;;;3.33;2.38;;;;;;;;;;4932141;28;20040;-83
2021/10/04 09:15:38;;;;;;;15.75;3.70;;;;;;;;;;4944120;29;20055;-82
2021/10/04 09:18:16;;;;;;;4.03;2.58;;;;;;;;;;4915175;29;20074;-86
2021/10/04 09:20:49;;;;;;;3.25;2.95;;;;;;;;;;4901071;29;20063;-84
2021/10/04 09:23:57;;;;;;;10.17;5.80;;;;;;;;;;4933721;29;20054;-84
2021/10/04 09:26:29;;;;;;;3.00;2.75;;;;;;;;;;4905782;29;20059;-85
2021/10/04 09:29:01;;;;;;;3.25;2.88;;;;;;;;;;4897403;29;20044;-81
2021/10/04 09:31:31;;;;;;;3.63;3.33;;;;;;;;;;4926225;29;20047;-81
2021/10/04 09:34:11;;;;;;;3.13;2.92;;;;;;;;;;4915022;29;20052;-82
2021/10/04 09:36:43;;;;;;;2.90;2.70;;;;;;;;;;4914941;29;20060;-82
2021/10/04 09:39:24;;;;;;;3.35;2.97;;;;;;;;;;4897991;29;20052;-82
2021/10/04 09:41:58;;;;;;;3.35;3.15;;;;;;;;;;4881683;29;20040;-81
2021/10/04 09:44:27;;;;;;;4.63;2.42;;;;;;;;;;4897639;29;20492;-81
2021/10/04 09:47:29;;;;;;;3.03;2.42;;;;;;;;;;4925522;29;20062;-88
2021/10/04 09:50:07;;;;;;;3.63;3.33;;;;;;;;;;4913939;29;20313;-88
2021/10/04 09:53:25;;;;;;;;;;;;;;;;;;;;;
2021/10/04 09:56:11;;;;;;;3.10;2.63;;;;;;;;;;4892528;29;20561;-86
2021/10/04 09:58:40;;;;;;;2.33;2.20;;;;;;;;;;4878655;29;20430;-88
2021/10/04 10:01:18;;;;;;;4.15;2.25;;;;;;;;;;4897939;29;20049;-89
2021/10/04 10:03:56;;;;;;;1.83;1.73;;;;;;;;;;4896622;29;20080;-91
2021/10/04 10:06:36;;;;;;;4.00;2.50;;;;;;;;;;4902647;29;20497;-90
2021/10/04 10:09:04;;;;;;;2.55;2.33;;;;;;;;;;4937072;29;20039;-89
2021/10/04 10:11:33;;;;;;;4.22;2.25;;;;;;;;;;4938114;28;20055;-89
2021/10/04 10:14:01;;;;;;;2.60;2.40;;;;;;;;;;4927605;29;20046;-89
2021/10/04 10:16:36;;;;;;;2.07;1.23;;;;;;;;;;4937295;29;20144;-90
2021/10/04 10:19:11;;;;;;;3.50;2.65;;;;;;;;;;4936150;29;20044;-89
2021/10/04 10:21:39;;;;;;;7.80;3.42;;;;;;;;;;4935861;28;20047;-86
2021/10/04 10:24:11;;;;;;;2.45;1.60;;;;;;;;;;4933801;29;20039;-85
2021/10/04 10:26:44;;;;;;;1.98;1.58;;;;;;;;;;4932447;29;20043;-86
2021/10/04 10:29:21;;;;;;;2.30;1.95;;;;;;;;;;4932205;29;20461;-85
2021/10/04 10:31:56;;;;;;;1.95;1.65;;;;;;;;;;4934579;29;20370;-93
2021/10/04 10:34:39;;;;;;;1.92;1.83;;;;;;;;;;4914227;29;20393;-88
2021/10/04 10:37:12;;;;;;;1.52;1.42;;;;;;;;;;4931601;29;20055;-85
2021/10/04 10:39:45;;;;;;;1.80;1.65;;;;;;;;;;4932143;29;20508;-87
2021/10/04 10:42:15;;;;;;;2.47;1.98;;;;;;;;;;4934968;29;20098;-87
2021/10/04 10:44:57;;;;;;;1.80;1.70;;;;;;;;;;4933384;28;20056;-85
2021/10/04 10:47:37;;;;;;;2.22;2.08;;;;;;;;;;4932910;29;20048;-83
2021/10/04 10:50:28;;;;;;;9.07;2.75;;;;;;;;;;4933442;29;20047;-83
2021/10/04 10:52:56;;;;;;;2.90;1.83;;;;;;;;;;4928373;28;20509;-84
2021/10/04 10:55:30;;;;;;;2.28;2.15;;;;;;;;;;4932431;29;20409;-86
2021/10/04 10:58:00;;;;;;;1.95;1.85;;;;;;;;;;4933739;29;20067;-88
2021/10/04 11:00:47;;;;;;;2.67;2.47;;;;;;;;;;4932902;29;20055;-87
2021/10/04 11:03:23;;;;;;;3.50;3.10;;;;;;;;;;4930392;29;20051;-87
2021/10/04 11:06:04;;;;;;;2.75;2.55;;;;;;;;;;4931873;28;20055;-86
2021/10/04 11:08:35;;;;;;;2.80;2.60;;;;;;;;;;4936426;29;20052;-89
2021/10/04 11:11:03;;;;;;;3.78;2.60;;;;;;;;;;4930982;29;20062;-88
2021/10/04 11:13:31;;;;;;;5.15;2.83;;;;;;;;;;4932592;29;20436;-87
2021/10/04 11:16:06;;;;;;;2.80;2.60;;;;;;;;;;4932750;29;20044;-86
2021/10/04 11:18:41;;;;;;;4.38;3.20;;;;;;;;;;4932308;28;20048;-88
2021/10/04 11:21:10;;;;;;;8.02;3.17;;;;;;;;;;4932403;29;20067;-86
2021/10/04 11:23:42;;;;;;;4.05;2.65;;;;;;;;;;4933166;29;20051;-85
2021/10/04 11:26:19;;;;;;;4.18;3.55;;;;;;;;;;4932246;28;20055;-81
2021/10/04 11:28:49;;;;;;;3.15;2.85;;;;;;;;;;4924894;29;20556;-85
2021/10/04 11:31:18;;;;;;;4.13;3.80;;;;;;;;;;4932645;29;20059;-85
2021/10/04 11:33:49;;;;;;;2.97;2.78;;;;;;;;;;4930261;29;20058;-83
2021/10/04 11:36:18;;;;;;;2.63;2.43;;;;;;;;;;4932387;29;20052;-87
2021/10/04 11:38:52;;;;;;;3.88;3.15;;;;;;;;;;4932292;29;20568;-86
2021/10/04 11:41:28;;;;;;;3.97;3.05;;;;;;;;;;4931534;28;20059;-86
2021/10/04 11:43:57;;;;;;;3.25;2.95;;;;;;;;;;4932826;29;20544;-85
2021/10/04 11:46:27;;;;;;;3.00;2.72;;;;;;;;;;4932286;29;20047;-88
2021/10/04 11:49:04;;;;;;;5.32;3.75;;;;;;;;;;4931820;28;20483;-88
2021/10/04 11:51:34;;;;;;;5.03;4.55;;;;;;;;;;4932069;29;20051;-87
2021/10/04 11:54:03;;;;;;;3.50;2.97;;;;;;;;;;4932503;29;20046;-85
2021/10/04 11:56:37;;;;;;;4.07;3.65;;;;;;;;;;4932028;29;20078;-86
2021/10/04 11:59:07;;;;;;;5.10;3.55;;;;;;;;;;4925282;29;20056;-85
2021/10/04 12:01:40;;;;;;;4.70;4.30;;;;;;;;;;4926850;28;20048;-87
2021/10/04 12:04:20;;;;;;;3.83;2.97;;;;;;;;;;4930078;29;20062;-88
2021/10/04 12:06:53;;;;;;;3.28;2.38;;;;;;;;;;4906183;29;20048;-87
2021/10/04 12:09:32;;;;;;;3.25;2.45;;;;;;;;;;4929885;29;20044;-88
2021/10/04 12:12:13;;;;;;;3.22;2.90;;;;;;;;;;4952893;28;20059;-88
2021/10/04 12:14:50;;;;;;;3.55;3.25;;;;;;;;;;4947709;28;20036;-87
2021/10/04 12:17:27;;;;;;;3.42;3.13;;;;;;;;;;4915311;29;20044;-86
2021/10/04 12:20:21;;;;;;;3.30;3.00;;;;;;;;;;4915247;29;20047;-88
2021/10/04 12:22:49;;;;;;;6.10;4.45;;;;;;;;;;4905988;29;20054;-88
2021/10/04 12:25:28;;;;;;;4.13;3.83;;;;;;;;;;4945155;29;20047;-88
2021/10/04 12:28:01;;;;;;;5.38;3.38;;;;;;;;;;4918041;29;20051;-90
2021/10/04 12:33:58;;;;;;;6.03;3.85;;;;;;;;;;4932736;29;20035;-86
2021/10/04 12:36:29;;;;;;;3.72;2.92;;;;;;;;;;4936958;29;20063;-87
2021/10/04 12:38:58;;;;;;;3.88;3.35;;;;;;;;;;4933026;28;20066;-86
2021/10/04 12:41:46;;;;;;;4.03;3.72;;;;;;;;;;4935194;29;20058;-83
2021/10/04 12:44:36;;;;;;;3.65;3.35;;;;;;;;;;4929261;28;20520;-79
2021/10/04 12:47:12;;;;;;;4.57;4.00;;;;;;;;;;4935860;29;20137;-80
2021/10/04 12:50:12;;;;;;;;;;;;;;;;;;;;;
2021/10/04 12:53:43;;;;;;;4.70;4.20;;;;;;;;;;4925380;28;20404;-85
2021/10/04 12:57:32;;;;;;;5.97;4.07;;;;;;;;;;4913909;29;20043;-84
2021/10/04 13:00:08;;;;;;;4.55;3.88;;;;;;;;;;4953352;29;20058;-83
2021/10/04 13:02:36;;;;;;;6.97;5.13;;;;;;;;;;4954166;28;20124;-83
2021/10/04 13:05:07;;;;;;;4.93;3.67;;;;;;;;;;4963682;28;20055;-83
2021/10/04 13:07:35;;;;;;;6.85;6.18;;;;;;;;;;4935331;29;20063;-82
2021/10/04 13:10:03;;;;;;;7.25;4.32;;;;;;;;;;4953206;29;20050;-83
2021/10/04 13:12:31;;;;;;;5.88;4.53;;;;;;;;;;4939671;28;20059;-84
2021/10/04 13:15:00;;;;;;;8.57;5.80;;;;;;;;;;4931395;29;20051;-81
2021/10/04 13:17:28;;;;;;;5.53;4.88;;;;;;;;;;4933965;29;20039;-81
2021/10/04 13:19:59;;;;;;;4.30;3.90;;;;;;;;;;4934078;29;20052;-86
2021/10/04 13:22:29;;;;;;;5.15;4.25;;;;;;;;;;4933709;28;20792;-84
2021/10/04 13:25:10;;;;;;;5.78;4.03;;;;;;;;;;4917336;29;20054;-85
2021/10/04 13:27:48;;;;;;;7.07;3.88;;;;;;;;;;4930878;29;20052;-83
2021/10/04 13:30:19;;;;;;;5.05;3.85;;;;;;;;;;4913266;29;20517;-82
2021/10/04 13:32:56;;;;;;;8.43;3.20;;;;;;;;;;4911100;28;20078;-85
2021/10/04 13:36:19;;;;;;;3.38;3.08;;;;;;;;;;4921671;29;20563;-84
2021/10/04 13:39:17;;;;;;;5.18;3.63;;;;;;;;;;4939218;29;20055;-84
2021/10/04 13:45:49;;;;;;;7.47;4.10;;;;;;;;;;4930639;28;20052;-83
2021/10/04 13:48:36;;;;;;;6.97;4.55;;;;;;;;;;4924420;29;20411;-85
2021/10/04 13:51:15;;;;;;;5.05;4.55;;;;;;;;;;4907571;29;20049;-83
2021/10/04 13:54:20;;;;;;;5.05;4.13;;;;;;;;;;4894573;29;20398;-82
2021/10/04 13:56:57;;;;;;;7.47;3.90;;;;;;;;;;4877242;29;20095;-84
2021/10/04 13:59:44;;;;;;;4.15;3.80;;;;;;;;;;4876791;29;20067;-85
2021/10/04 14:02:18;;;;;;;4.18;3.85;;;;;;;;;;4904810;29;20063;-84
2021/10/04 14:04:53;;;;;;;5.45;4.78;;;;;;;;;;4911608;29;20060;-83
2021/10/04 14:07:24;;;;;;;5.45;4.03;;;;;;;;;;4911395;29;20052;-83
2021/10/04 14:09:52;;;;;;;4.45;4.00;;;;;;;;;;4895457;29;20509;-82
2021/10/04 14:12:20;;;;;;;19.83;5.88;;;;;;;;;;4938685;29;20066;-82
2021/10/04 14:14:48;;;;;;;4.68;4.22;;;;;;;;;;4941492;28;20048;-83
2021/10/04 14:17:16;;;;;;;4.28;3.95;;;;;;;;;;4925141;29;20040;-83
2021/10/04 14:19:45;;;;;;;4.00;3.60;;;;;;;;;;4951928;29;20047;-85
2021/10/04 14:22:15;;;;;;;5.18;4.68;;;;;;;;;;4952095;28;20059;-85
2021/10/04 14:24:46;;;;;;;7.10;5.20;;;;;;;;;;4951102;28;20047;-82
2021/10/04 14:27:14;;;;;;;6.75;4.25;;;;;;;;;;4950934;28;20058;-83
2021/10/04 14:29:42;;;;;;;5.72;5.13;;;;;;;;;;4919796;29;20092;-83
2021/10/04 14:32:10;;;;;;;3.97;3.60;;;;;;;;;;4922599;29;20048;-83
2021/10/04 14:34:38;;;;;;;4.70;4.30;;;;;;;;;;4920397;29;20733;-84
2021/10/04 14:37:06;;;;;;;4.60;4.20;;;;;;;;;;4909330;29;20481;-84
2021/10/04 14:40:38;;;;;;;4.45;4.05;;;;;;;;;;4899061;29;20052;-85
2021/10/04 14:43:22;;;;;;;4.70;3.92;;;;;;;;;;4911416;29;20048;-85
2021/10/04 14:45:50;;;;;;;4.30;3.80;;;;;;;;;;4918686;29;20047;-84
2021/10/04 14:48:20;;;;;;;4.25;3.95;;;;;;;;;;4939258;29;20495;-84
2021/10/04 14:50:50;;;;;;;5.07;4.57;;;;;;;;;;4933510;28;20390;-83
2021/10/04 14:53:18;;;;;;;25.40;7.85;;;;;;;;;;4933313;29;20051;-83
2021/10/04 14:55:58;;;;;;;7.85;4.25;;;;;;;;;;4932769;29;20390;-83
2021/10/04 14:58:27;;;;;;;9.07;3.47;;;;;;;;;;4932518;28;20110;-83
2021/10/04 15:00:59;;;;;;;3.83;2.92;;;;;;;;;;4935818;28;20401;-83
2021/10/04 15:03:28;;;;;;;23.35;6.38;;;;;;;;;;4949337;28;20428;-84
2021/10/04 15:05:57;;;;;;;3.80;2.92;;;;;;;;;;4932356;28;20413;-83
2021/10/04 15:08:25;;;;;;;2.80;2.60;;;;;;;;;;4929621;29;20060;-83
2021/10/04 15:10:53;;;;;;;2.80;2.60;;;;;;;;;;4913130;29;20044;-82
2021/10/04 15:13:21;;;;;;;7.00;3.60;;;;;;;;;;4914068;29;20055;-82
2021/10/04 15:15:49;;;;;;;4.00;2.92;;;;;;;;;;4913661;29;20048;-82
2021/10/04 15:18:17;;;;;;;3.13;2.05;;;;;;;;;;4931447;29;20051;-83
2021/10/04 15:20:45;;;;;;;2.72;2.53;;;;;;;;;;4944599;28;20059;-82